< < Back
Terminal Aerodrome Forecast


Current Version              Previous Versions:   1  2  3  4  5  6  7  8  9  

Terminal Aerodrome Forecast

037
FTUS44 KMRX 292334
TAFCHA
TAF
KCHA 292334Z 3000/3024 18003KT P6SM SCT250
     FM301100 17006KT P6SM SCT045 BKN250
     FM301800 18008KT P6SM VCTS BKN050CB OVC100=



Latest METAR

659
SAUS80 KWBC 300000 RRB
MTRCHA
METAR KCHA 292353Z 22003KT 10SM SCT080 SCT095 SCT150 BKN250 32/13 A3002
RMK AO2 SLP157 T03170133 10344 20311 53002 $


USA.gov is the U.S. government's official web portal to all federal, state and local government web resources and services.